Kirksville Regional Airport
KIRK : rendu visible

Aérodrome :











RETROUVEZ-NOUS SUR...

 
LOGIN :

S'inscrire | Disclaimer

   EN    FR    IT 

 









Légende :    VFR   VFR Marginal   IFR   IFR Intensif   IFR Très Intensif
Visi : 
Plafond : 
>= 8 km
>= 3000ft
5 à 8 km
1000 à 3000 ft
1500m à 5 km
500 à 1000 ft
800 à 1500m
200 à 500 ft
< 800m
< 200 ft
Symboles :   Orages  Brouillard  Fortes neiges  Fortes précipitations  Vent > 20 kt







- Altitude de l'aérodrome : 966 ft
- Code IATA : IRK


KIRK - Kirksville Regional

DERNIER METAR :
  • 221023Z AUTO 30007G14KT 260V350 10SM SCT009 BKN020 OVC047 21/20 A2992 RMK AO2 T02110200

METARs EXPIRÉS :
  • 220955Z AUTO 24007KT 10SM BKN060 BKN080 23/20 A2990 RMK AO2 LTG DSNT W AND NW SLP122 T02280200
  • 220855Z AUTO 20009G17KT 10SM FEW120 23/20 A2991 RMK AO2 LTG DSNT NW SLP122 60033 T02280200 58015
  • 220755Z AUTO 19008G16KT 10SM CLR 22/21 A2992 RMK AO2 SLP127 P0009 T02220206

TAF N/A
Pas de NOTAMs connus pour ce terrain.



MET'MAP, la Météo Aéronautique d'un coup d'oeil ! - Copyright ORBIFLY Décembre 2007 - Disclaimer

ORBIFLY MET'MAP TEAM :

Programmation & Développement : Alexandra Zaïnal
Conception & Développement : Baudouin d'Aumeries
Co-Programmation & Développement : Marc-Olivier Méhu
Soutien technique & logistique : Manuel Goepfert

Contact : metmap@orbifly.com




SOURCES & CREDITS :

   NOAA       Earth
Advisory